Time;durP1;ratioP1;P1;durP2;ratioP2;P2;SDS_P1;SDS_P2;PMS_P1;PMS_P2;Temp;Humidity;BMP_temperature;BMP_pressure;BME280_temperature;BME280_humidity;BME280_pressure;Samples;Min_cycle;Max_cycle;Signal;HPM_P1;HPM_P2
2021/10/01 00:01:02;;;;;;;5.93;1.70;;;;;;;11.84;70.49;102193.16;4972541;28;20654;-77
2021/10/01 00:03:28;;;;;;;4.03;1.40;;;;;;;11.87;69.70;102180.44;4993473;28;20208;-77
2021/10/01 00:05:53;;;;;;;4.37;1.57;;;;;;;11.86;69.90;102182.13;4991399;28;20195;-76
2021/10/01 00:08:18;;;;;;;4.47;1.50;;;;;;;11.85;69.43;102175.22;4997578;28;20187;-76
2021/10/01 00:10:44;;;;;;;3.17;1.40;;;;;;;11.87;69.44;102183.00;4998789;28;20204;-77
2021/10/01 00:13:09;;;;;;;6.97;1.70;;;;;;;11.85;69.96;102174.38;4997422;28;20208;-77
2021/10/01 00:15:35;;;;;;;4.30;1.43;;;;;;;11.87;69.80;102181.31;4997461;28;20199;-76
2021/10/01 00:18:01;;;;;;;4.77;1.50;;;;;;;11.88;69.86;102171.91;4973205;28;20240;-77
2021/10/01 00:20:26;;;;;;;4.73;1.63;;;;;;;11.87;69.39;102168.47;4977742;28;20196;-76
2021/10/01 00:22:52;;;;;;;5.07;1.40;;;;;;;11.90;68.52;102163.44;4977606;28;20208;-76
2021/10/01 00:25:17;;;;;;;3.03;1.40;;;;;;;11.93;69.02;102165.25;4979011;28;20220;-76
2021/10/01 00:27:42;;;;;;;3.40;1.10;;;;;;;11.96;68.62;102167.91;4977723;28;20581;-76
2021/10/01 00:30:08;;;;;;;3.57;1.20;;;;;;;11.98;68.32;102159.44;4994437;28;20216;-75
2021/10/01 00:32:33;;;;;;;2.73;1.30;;;;;;;11.98;68.75;102156.03;4979535;28;20231;-76
2021/10/01 00:35:00;;;;;;;7.10;1.60;;;;;;;11.99;68.40;102161.19;4987515;28;20191;-77
2021/10/01 00:37:25;;;;;;;2.87;1.30;;;;;;;12.08;66.58;102158.09;4983804;28;20258;-76
2021/10/01 00:39:52;;;;;;;4.10;1.47;;;;;;;12.09;67.54;102154.69;5011073;28;20277;-77
2021/10/01 00:42:17;;;;;;;5.27;1.40;;;;;;;12.11;67.25;102159.06;5006059;28;20220;-77
2021/10/01 00:44:43;;;;;;;2.40;1.20;;;;;;;12.08;67.13;102150.38;4983382;28;20202;-76
2021/10/01 00:47:08;;;;;;;4.87;1.60;;;;;;;12.08;67.54;102143.53;4993040;28;20610;-74
2021/10/01 00:49:34;;;;;;;5.63;1.97;;;;;;;12.07;68.09;102135.81;5008019;28;20615;-77
2021/10/01 00:52:00;;;;;;;4.07;1.47;;;;;;;12.05;68.26;102135.75;5008529;28;20242;-77
2021/10/01 00:54:26;;;;;;;3.00;1.40;;;;;;;12.01;68.19;102140.72;5002864;28;20195;-76
2021/10/01 00:56:52;;;;;;;3.83;1.60;;;;;;;11.98;68.32;102131.22;5009762;28;20214;-78
2021/10/01 00:59:17;;;;;;;4.23;1.43;;;;;;;11.97;69.43;102126.00;5001042;28;20707;-77
2021/10/01 01:01:43;;;;;;;2.93;1.40;;;;;;;11.97;68.90;102121.78;5009252;28;20188;-76
2021/10/01 01:04:09;;;;;;;7.60;1.63;;;;;;;11.94;68.74;102116.53;5008518;28;20616;-76
2021/10/01 01:06:42;;;;;;;1.97;1.30;;;;;;;11.90;69.60;102116.38;5000880;28;20219;-76
2021/10/01 01:09:37;;;;;;;5.90;1.73;;;;;;;11.87;69.23;102119.72;4993068;28;20255;-76
2021/10/01 01:12:08;;;;;;;3.37;1.33;;;;;;;11.88;69.76;102110.28;5015204;28;20283;-76
2021/10/01 01:14:50;;;;;;;5.33;1.70;;;;;;;11.85;69.32;102112.78;4979733;28;20202;-77
2021/10/01 01:17:27;;;;;;;5.13;1.20;;;;;;;11.87;69.62;102111.13;5006541;28;20187;-77
2021/10/01 01:20:20;;;;;;;4.07;1.60;;;;;;;11.84;69.21;102114.47;4986117;28;20188;-77
2021/10/01 01:22:50;;;;;;;2.90;1.20;;;;;;;11.85;69.07;102105.09;4990004;28;20227;-77
2021/10/01 01:25:34;;;;;;;5.13;1.47;;;;;;;11.85;68.92;102105.94;4989516;28;20211;-76
2021/10/01 01:28:09;;;;;;;3.27;1.43;;;;;;;11.92;68.30;102107.91;5010728;28;20186;-77
2021/10/01 01:30:45;;;;;;;3.37;1.40;;;;;;;11.90;68.39;102104.41;5016267;28;20218;-77
2021/10/01 01:33:22;;;;;;;4.53;1.33;;;;;;;11.89;67.97;102105.22;5002371;28;20219;-77
2021/10/01 01:35:52;;;;;;;4.17;1.57;;;;;;;11.89;68.70;102104.38;5001171;28;20196;-76
2021/10/01 01:38:26;;;;;;;4.03;1.43;;;;;;;11.92;68.25;102101.88;5004552;28;20195;-77
2021/10/01 01:40:56;;;;;;;5.07;1.60;;;;;;;11.88;69.10;102111.19;5004947;28;20199;-76
2021/10/01 01:43:23;;;;;;;4.03;1.10;;;;;;;11.88;69.17;102106.06;5002384;28;20215;-77
2021/10/01 01:45:50;;;;;;;3.37;1.50;;;;;;;11.94;67.90;102105.41;4997598;28;20466;-77
2021/10/01 01:48:17;;;;;;;3.63;1.20;;;;;;;11.96;67.89;102096.94;5006783;28;20569;-77
2021/10/01 01:50:44;;;;;;;3.63;1.27;;;;;;;11.97;67.72;102093.53;5007777;28;20207;-76
2021/10/01 01:53:11;;;;;;;2.90;1.20;;;;;;;11.98;67.38;102091.84;4999433;28;20203;-76
2021/10/01 01:55:38;;;;;;;3.53;1.60;;;;;;;11.96;67.71;102096.03;4997936;28;20188;-76
2021/10/01 01:58:05;;;;;;;3.47;1.20;;;;;;;11.97;67.67;102078.13;5000661;28;20656;-77
2021/10/01 02:00:50;;;;;;;4.83;1.60;;;;;;;12.00;67.48;102087.63;5002317;28;20263;-76
2021/10/01 02:03:19;;;;;;;4.37;1.13;;;;;;;11.98;67.95;102079.00;4994581;28;20260;-75
2021/10/01 02:05:58;;;;;;;4.63;1.40;;;;;;;11.99;67.54;102083.31;4993703;28;20191;-77
2021/10/01 02:08:23;;;;;;;4.97;1.20;;;;;;;11.98;67.79;102076.44;5006101;28;20195;-76
2021/10/01 02:10:50;;;;;;;6.00;1.50;;;;;;;11.96;67.84;102081.53;4993448;28;20218;-76
2021/10/01 02:13:17;;;;;;;5.30;1.47;;;;;;;11.95;67.79;102078.91;5005896;28;20598;-77
2021/10/01 02:15:46;;;;;;;4.13;1.23;;;;;;;11.97;67.56;102070.44;4998556;28;20204;-76
2021/10/01 02:18:12;;;;;;;3.87;1.40;;;;;;;11.97;67.49;102070.44;5005750;28;20199;-77
2021/10/01 02:20:40;;;;;;;4.30;1.20;;;;;;;11.97;67.67;102060.16;5011201;28;20761;-76
2021/10/01 02:23:06;;;;;;;2.80;1.27;;;;;;;11.96;67.69;102065.25;4998969;28;20218;-76
2021/10/01 02:28:30;;;;;;;3.40;1.30;;;;;;;11.93;67.82;102044.63;5011973;28;20281;-76
2021/10/01 02:30:57;;;;;;;2.27;1.20;;;;;;;11.92;67.50;102051.44;4995350;28;20294;-77
2021/10/01 02:33:39;;;;;;;5.77;1.60;;;;;;;11.89;67.49;102041.06;5000015;28;20217;-76
2021/10/01 02:36:05;;;;;;;2.47;1.17;;;;;;;11.89;67.90;102046.19;4999409;28;20790;-77
2021/10/01 02:38:31;;;;;;;4.40;1.73;;;;;;;11.86;68.12;102043.53;4999300;28;20203;-77
2021/10/01 02:40:56;;;;;;;6.47;1.50;;;;;;;11.86;67.62;102038.41;4986125;28;20463;-77
2021/10/01 02:43:22;;;;;;;3.13;1.30;;;;;;;11.85;68.02;102044.34;5008733;28;20439;-76
2021/10/01 02:45:48;;;;;;;6.23;1.27;;;;;;;11.85;67.39;102028.09;4998183;28;20195;-78
2021/10/01 02:48:13;;;;;;;3.57;0.80;;;;;;;11.85;67.68;102038.34;5009719;28;20186;-78
2021/10/01 02:50:42;;;;;;;3.43;1.50;;;;;;;11.81;68.31;102037.38;4982931;28;20212;-77
2021/10/01 02:53:16;;;;;;;3.23;1.33;;;;;;;11.83;67.92;102027.16;4983500;28;20287;-76
2021/10/01 02:55:53;;;;;;;4.10;1.20;;;;;;;11.78;68.25;102029.56;5003134;28;20252;-76
2021/10/01 02:58:33;;;;;;;4.67;1.27;;;;;;;11.76;67.92;102023.50;4999875;28;20696;-76
2021/10/01 03:01:00;;;;;;;3.60;1.33;;;;;;;11.71;68.29;102019.06;5005339;28;20175;-76
2021/10/01 03:03:30;;;;;;;3.80;1.10;;;;;;;11.67;68.56;102018.09;5003020;28;20825;-77
2021/10/01 03:05:59;;;;;;;4.57;1.23;;;;;;;11.63;68.71;102013.69;4991865;28;20286;-77
2021/10/01 03:08:29;;;;;;;3.50;1.17;;;;;;;11.63;68.81;102011.09;5003413;28;20183;-77
2021/10/01 03:10:57;;;;;;;4.67;1.40;;;;;;;11.60;69.48;102012.66;5005608;28;20321;-76
2021/10/01 03:13:24;;;;;;;4.93;1.63;;;;;;;11.63;68.32;102007.66;5007285;28;20210;-77
2021/10/01 03:15:52;;;;;;;5.00;1.13;;;;;;;11.61;68.59;102011.88;5008906;28;20176;-76
2021/10/01 03:18:19;;;;;;;3.63;1.50;;;;;;;11.57;69.13;102008.28;5017821;28;20187;-77
2021/10/01 03:20:46;;;;;;;3.30;1.30;;;;;;;11.56;69.22;102019.38;5021891;28;20607;-77
2021/10/01 03:23:14;;;;;;;3.47;1.43;;;;;;;11.57;69.03;102008.28;4996464;28;20299;-77
2021/10/01 03:25:39;;;;;;;3.33;1.10;;;;;;;11.56;69.02;102009.09;5001158;28;20219;-76
2021/10/01 03:28:06;;;;;;;5.00;1.50;;;;;;;11.53;69.28;102015.84;4999867;28;20199;-77
2021/10/01 03:30:32;;;;;;;3.33;1.70;;;;;;;11.53;69.40;102019.25;5008770;28;20232;-77
2021/10/01 03:32:57;;;;;;;3.03;1.33;;;;;;;11.52;69.59;102008.97;5012141;28;20198;-77
2021/10/01 03:35:24;;;;;;;3.27;1.30;;;;;;;11.49;69.49;101999.47;5012346;28;20736;-77
2021/10/01 03:37:53;;;;;;;2.67;1.57;;;;;;;11.47;69.94;101995.13;4993359;28;20223;-77
2021/10/01 03:40:20;;;;;;;5.87;1.30;;;;;;;11.48;69.56;101995.13;5009050;28;20191;-77
2021/10/01 03:42:46;;;;;;;4.23;1.30;;;;;;;11.44;69.81;101990.75;5011825;28;20782;-77
2021/10/01 03:45:16;;;;;;;6.03;1.50;;;;;;;11.46;69.44;101998.47;4988526;28;20187;-76
2021/10/01 03:47:42;;;;;;;3.43;1.30;;;;;;;11.45;69.90;101982.22;4992129;28;20631;-76
2021/10/01 03:50:07;;;;;;;2.80;1.27;;;;;;;11.39;69.84;101999.09;5001703;28;20684;-76
2021/10/01 03:52:34;;;;;;;4.43;1.43;;;;;;;11.37;70.08;101990.47;4998404;28;20286;-77
2021/10/01 03:55:00;;;;;;;4.10;1.80;;;;;;;11.31;70.08;101982.56;5001222;28;20212;-77
2021/10/01 03:57:25;;;;;;;5.63;1.60;;;;;;;11.29;70.40;101979.94;5007564;28;20199;-77
2021/10/01 03:59:51;;;;;;;2.93;1.50;;;;;;;11.26;70.28;101977.31;5008340;28;20187;-75
2021/10/01 04:02:16;;;;;;;3.03;1.27;;;;;;;11.27;69.72;101971.34;4984576;28;20608;-76
2021/10/01 04:04:41;;;;;;;4.13;1.27;;;;;;;11.25;70.01;101977.25;4996900;28;20670;-77
2021/10/01 04:07:07;;;;;;;3.37;1.40;;;;;;;11.25;69.81;101972.09;5007462;28;20808;-76
2021/10/01 04:09:32;;;;;;;3.13;1.43;;;;;;;11.22;69.92;101977.13;5016188;28;20183;-76
2021/10/01 04:11:58;;;;;;;3.47;1.70;;;;;;;11.21;69.70;101976.28;4999695;28;20211;-77
2021/10/01 04:14:27;;;;;;;3.30;1.43;;;;;;;11.19;69.88;101980.44;5000777;28;20262;-75
2021/10/01 04:16:53;;;;;;;3.97;1.23;;;;;;;11.19;70.06;101984.69;4985355;28;20291;-77
2021/10/01 04:19:18;;;;;;;4.23;1.30;;;;;;;11.17;70.02;101973.53;4985101;28;20571;-77
2021/10/01 04:21:45;;;;;;;2.20;1.27;;;;;;;11.15;70.30;101985.44;5008192;28;20241;-76
2021/10/01 04:24:11;;;;;;;6.00;1.53;;;;;;;11.18;70.16;101973.59;5008280;28;20211;-77
2021/10/01 04:26:41;;;;;;;5.17;1.30;;;;;;;11.15;70.27;101970.06;4992155;28;20711;-77
2021/10/01 04:29:07;;;;;;;6.00;1.60;;;;;;;11.11;70.33;101963.91;4998037;28;20192;-76
2021/10/01 04:31:32;;;;;;;4.90;1.23;;;;;;;11.13;70.40;101970.00;5006221;28;20228;-77
2021/10/01 04:33:58;;;;;;;3.40;1.77;;;;;;;11.10;70.20;101967.31;4985723;28;20541;-75
2021/10/01 04:36:26;;;;;;;4.73;1.40;;;;;;;11.08;70.75;101966.41;5005696;28;20192;-78
2021/10/01 04:38:52;;;;;;;2.03;1.40;;;;;;;11.07;70.70;101966.34;4999702;28;20183;-77
2021/10/01 04:41:18;;;;;;;3.77;1.40;;;;;;;11.05;70.94;101966.28;5016127;28;20175;-77
2021/10/01 04:43:43;;;;;;;4.10;1.27;;;;;;;11.03;70.76;101964.47;4999406;28;20756;-77
2021/10/01 04:46:24;;;;;;;5.23;1.80;;;;;;;11.01;71.24;101961.00;5005163;28;20196;-76
2021/10/01 04:48:50;;;;;;;6.17;1.73;;;;;;;11.00;71.20;101966.91;4985490;28;20190;-76
2021/10/01 04:51:22;;;;;;;3.13;1.50;;;;;;;10.99;71.23;101967.75;5006048;28;20212;-76
2021/10/01 04:53:47;;;;;;;7.10;1.60;;;;;;;10.97;70.96;101966.84;4995472;28;20243;-76
2021/10/01 04:56:14;;;;;;;4.80;1.60;;;;;;;10.96;71.42;101963.38;5002813;28;20203;-77
2021/10/01 04:58:39;;;;;;;2.97;1.40;;;;;;;10.94;71.59;101965.03;4999876;28;20191;-76
2021/10/01 05:01:23;;;;;;;2.50;1.30;;;;;;;10.96;71.95;101963.38;5003528;28;20636;-77
2021/10/01 05:04:24;;;;;;;4.47;1.50;;;;;;;10.91;71.50;101956.34;5011081;28;20200;-76
2021/10/01 05:07:13;;;;;;;7.37;1.40;;;;;;;10.88;71.77;101963.94;4993223;28;20286;-75
2021/10/01 05:09:57;;;;;;;6.07;1.73;;;;;;;10.85;72.05;101968.94;5002814;28;20219;-77
2021/10/01 05:12:42;;;;;;;7.07;1.60;;;;;;;10.85;71.91;101974.06;5004697;28;20231;-76
2021/10/01 05:15:25;;;;;;;3.50;1.43;;;;;;;10.82;72.20;101973.94;4996647;28;20214;-76
2021/10/01 05:18:24;;;;;;;4.40;1.60;;;;;;;10.81;71.87;101979.91;5017312;28;20188;-77
2021/10/01 05:20:49;;;;;;;3.37;1.37;;;;;;;10.79;72.28;101978.97;4996975;28;20258;-76
2021/10/01 05:23:41;;;;;;;3.23;1.40;;;;;;;10.74;72.69;101973.66;4989578;28;20232;-76
2021/10/01 05:26:07;;;;;;;4.50;1.33;;;;;;;10.78;72.80;101985.78;4992004;28;20692;-76
2021/10/01 05:28:32;;;;;;;4.87;1.47;;;;;;;10.78;72.32;101983.22;4991608;28;20211;-76
2021/10/01 05:30:57;;;;;;;2.93;1.53;;;;;;;10.76;72.15;101983.97;4996508;28;20231;-77
2021/10/01 05:33:23;;;;;;;4.77;1.73;;;;;;;10.76;72.38;101984.88;4995290;28;20302;-77
2021/10/01 05:35:48;;;;;;;5.63;1.57;;;;;;;10.75;72.36;101985.69;4995092;28;20184;-75
2021/10/01 05:38:14;;;;;;;3.70;1.67;;;;;;;10.74;72.37;101998.44;4996013;28;20701;-77
2021/10/01 05:40:39;;;;;;;7.53;2.20;;;;;;;10.72;72.59;101993.25;4994133;28;20188;-76
2021/10/01 05:43:05;;;;;;;5.57;2.00;;;;;;;10.72;72.52;101992.38;4996518;28;20543;-77
2021/10/01 05:45:30;;;;;;;7.80;2.00;;;;;;;10.67;73.10;101994.78;4994526;28;20589;-75
2021/10/01 05:48:15;;;;;;;3.53;1.73;;;;;;;10.72;72.85;101990.69;4995823;28;20176;-77
2021/10/01 05:51:04;;;;;;;4.50;1.53;;;;;;;10.72;72.80;101988.13;4989593;28;20348;-77
2021/10/01 05:54:01;;;;;;;5.97;1.97;;;;;;;10.71;72.90;101980.38;4972085;28;20745;-77
2021/10/01 05:56:54;;;;;;;7.87;1.80;;;;;;;10.70;72.86;101976.94;4975236;28;20704;-78
2021/10/01 05:59:26;;;;;;;4.53;1.60;;;;;;;10.71;72.87;101975.25;4972262;28;20224;-76
2021/10/01 06:01:51;;;;;;;5.10;1.97;;;;;;;10.74;72.85;101971.09;4964406;28;20172;-75
2021/10/01 06:04:16;;;;;;;3.17;1.60;;;;;;;10.76;72.51;101969.50;4984910;28;20255;-76
2021/10/01 06:06:43;;;;;;;5.00;1.60;;;;;;;10.76;72.79;101972.06;4985605;28;20242;-77
2021/10/01 06:09:12;;;;;;;2.87;1.60;;;;;;;10.82;72.58;101977.41;4975663;28;20678;-77
2021/10/01 06:11:39;;;;;;;2.60;1.40;;;;;;;10.81;72.36;101970.53;4984908;28;20591;-76
2021/10/01 06:14:06;;;;;;;3.17;1.30;;;;;;;10.84;72.54;101970.66;4988609;28;20216;-76
2021/10/01 06:16:32;;;;;;;4.83;1.63;;;;;;;10.86;72.29;101975.81;4974650;28;20193;-77
2021/10/01 06:18:58;;;;;;;5.67;1.47;;;;;;;10.92;72.07;101974.34;4992684;28;20191;-76
2021/10/01 06:21:23;;;;;;;5.00;1.73;;;;;;;10.95;72.10;101964.22;4993730;28;20251;-77
2021/10/01 06:23:48;;;;;;;6.10;1.70;;;;;;;11.02;71.99;101962.75;4994204;28;20254;-76
2021/10/01 06:26:17;;;;;;;5.57;1.73;;;;;;;11.04;71.75;101969.66;4993848;28;20192;-76
2021/10/01 06:28:42;;;;;;;4.60;1.50;;;;;;;11.11;71.32;101965.63;4977154;28;20252;-76
2021/10/01 06:31:07;;;;;;;4.00;1.50;;;;;;;11.13;71.39;101964.88;4952665;28;20221;-77
2021/10/01 06:33:33;;;;;;;4.77;1.50;;;;;;;11.17;71.68;101961.59;4974826;28;20223;-77
2021/10/01 06:35:59;;;;;;;4.80;1.50;;;;;;;11.21;71.07;101963.44;4970320;28;20263;-76
2021/10/01 06:38:25;;;;;;;4.20;1.40;;;;;;;11.26;70.85;101971.28;5002818;28;20187;-77
2021/10/01 06:40:51;;;;;;;2.07;1.43;;;;;;;11.41;70.93;101964.09;4994495;28;20318;-77
2021/10/01 06:43:18;;;;;;;5.43;1.63;;;;;;;11.57;70.52;101956.97;5012313;28;20261;-76
2021/10/01 06:45:47;;;;;;;4.57;1.60;;;;;;;11.71;69.89;101960.91;4976666;28;20188;-76
2021/10/01 06:48:20;;;;;;;4.13;1.50;;;;;;;11.88;69.37;101956.31;4970975;28;20197;-75
2021/10/01 08:20:42;;;;;;;3.33;1.37;;;;;;;14.11;62.19;101925.69;4991864;28;20175;-77
2021/10/01 08:23:10;;;;;;;6.80;1.50;;;;;;;14.12;63.06;101923.94;4992684;28;20212;-77
2021/10/01 08:25:35;;;;;;;4.53;1.53;;;;;;;14.32;62.32;101918.44;4976058;28;20261;-78
2021/10/01 08:28:02;;;;;;;2.97;1.30;;;;;;;14.24;62.10;101920.00;4976768;28;20789;-77
2021/10/01 08:30:34;;;;;;;5.17;1.67;;;;;;;14.26;62.50;101923.47;4976321;28;20806;-77
2021/10/01 08:33:01;;;;;;;5.80;1.20;;;;;;;14.25;61.75;101918.28;4982635;28;20224;-76
2021/10/01 08:35:26;;;;;;;3.57;1.30;;;;;;;14.31;62.26;101913.28;4995303;28;20192;-76
2021/10/01 08:37:54;;;;;;;2.40;1.20;;;;;;;14.39;61.36;101915.16;4995310;28;20242;-77
2021/10/01 08:40:20;;;;;;;3.40;1.20;;;;;;;14.65;60.72;101918.28;4982649;28;20192;-77
2021/10/01 08:42:49;;;;;;;3.67;1.33;;;;;;;15.01;60.72;101912.09;5019106;28;20222;-77
2021/10/01 08:45:16;;;;;;;2.67;1.13;;;;;;;14.96;59.76;101915.47;5010105;28;20612;-78
2021/10/01 08:47:42;;;;;;;2.80;1.10;;;;;;;15.19;59.14;101907.28;4974849;28;20314;-76
2021/10/01 08:50:15;;;;;;;3.93;1.67;;;;;;;15.49;58.58;101897.53;4978075;28;20185;-78
2021/10/01 08:52:49;;;;;;;5.47;1.43;;;;;;;15.80;57.48;101897.13;4985661;28;20361;-77
2021/10/01 08:55:22;;;;;;;2.33;1.23;;;;;;;15.91;57.85;101895.59;4976376;28;20231;-77
2021/10/01 08:57:47;;;;;;;3.63;1.60;;;;;;;16.27;56.18;101897.81;4979215;28;20244;-76
2021/10/01 09:00:16;;;;;;;2.80;1.37;;;;;;;15.93;55.13;101890.47;4977406;28;20207;-77
2021/10/01 09:02:43;;;;;;;3.07;1.30;;;;;;;16.36;55.64;101888.47;4979226;28;20216;-77
2021/10/01 09:05:09;;;;;;;3.70;1.90;;;;;;;17.13;53.60;101891.97;4969994;28;20650;-77
2021/10/01 09:07:34;;;;;;;3.73;1.60;;;;;;;17.61;51.73;101888.09;4979739;28;20242;-77
2021/10/01 09:10:00;;;;;;;2.43;1.17;;;;;;;19.83;46.20;101868.03;4980334;28;20188;-77
2021/10/01 09:12:26;;;;;;;3.30;1.27;;;;;;;22.01;41.95;101859.75;5004700;28;20303;-77
2021/10/01 09:14:53;;;;;;;2.93;1.10;;;;;;;23.42;38.93;101846.47;4994142;28;20228;-78
2021/10/01 09:17:37;;;;;;;2.63;1.47;;;;;;;22.84;38.92;101852.63;4961670;28;20189;-77
2021/10/01 09:20:03;;;;;;;7.50;1.63;;;;;;;23.76;38.04;101838.91;4976813;28;20193;-77
2021/10/01 09:22:37;;;;;;;3.40;1.30;;;;;;;23.86;37.44;101829.97;4966557;28;20217;-77
2021/10/01 09:25:22;;;;;;;4.20;1.73;;;;;;;25.08;35.57;101831.69;4973868;28;20713;-77
2021/10/01 09:28:00;;;;;;;3.22;1.45;;;;;;;22.72;38.54;101848.44;4967310;28;20692;-77
2021/10/01 09:30:26;;;;;;;3.17;1.20;;;;;;;24.04;36.07;101830.50;4976505;28;20247;-78
2021/10/01 09:33:11;;;;;;;3.60;1.40;;;;;;;24.25;35.97;101835.31;4959852;28;20215;-78
2021/10/01 09:35:37;;;;;;;2.85;1.35;;;;;;;24.86;33.91;101829.63;4977396;28;20197;-77
2021/10/01 09:38:05;;;;;;;4.22;1.60;;;;;;;25.51;33.07;101831.53;4976624;28;20193;-77
2021/10/01 09:40:31;;;;;;;3.05;1.23;;;;;;;25.35;33.28;101830.19;4978337;28;20188;-77
2021/10/01 09:42:56;;;;;;;2.88;1.20;;;;;;;25.86;32.30;101820.94;4982697;28;20272;-76
2021/10/01 09:45:22;;;;;;;3.47;1.55;;;;;;;25.31;33.20;101823.28;4971680;28;20184;-77
2021/10/01 09:47:49;;;;;;;3.55;1.40;;;;;;;25.79;33.54;101814.13;4973227;28;20222;-77
2021/10/01 09:50:30;;;;;;;2.90;1.50;;;;;;;27.11;31.52;101799.56;4975914;28;20180;-77
2021/10/01 09:53:01;;;;;;;2.65;1.33;;;;;;;26.13;32.32;101801.81;4974669;28;20307;-77
2021/10/01 09:55:36;;;;;;;2.85;1.42;;;;;;;25.70;32.69;101807.34;4970527;28;20810;-76
2021/10/01 09:58:04;;;;;;;2.33;1.42;;;;;;;28.63;29.98;101797.53;4956356;28;20232;-77
2021/10/01 10:00:40;;;;;;;3.28;1.70;;;;;;;28.11;30.62;101792.53;4957773;28;20196;-78
2021/10/01 10:03:29;;;;;;;2.92;1.80;;;;;;;28.05;29.02;101785.69;4960251;28;20227;-78
2021/10/01 10:06:02;;;;;;;1.98;1.30;;;;;;;27.33;30.51;101785.69;4984045;28;20192;-78
2021/10/01 10:08:31;;;;;;;2.58;1.42;;;;;;;27.13;30.68;101797.78;4976163;28;20220;-77
2021/10/01 10:11:01;;;;;;;3.97;1.50;;;;;;;29.09;28.93;101779.81;4964344;28;20231;-77
2021/10/01 10:13:50;;;;;;;2.85;1.40;;;;;;;28.34;29.23;101774.94;4970094;28;20213;-78
2021/10/01 10:16:20;;;;;;;3.75;1.60;;;;;;;28.54;29.22;101767.13;4995678;28;20744;-77
2021/10/01 10:18:48;;;;;;;1.80;1.38;;;;;;;28.87;27.90;101765.75;4979653;28;20210;-77
2021/10/01 10:21:14;;;;;;;2.40;1.55;;;;;;;30.21;27.35;101762.50;4995415;28;20245;-78
2021/10/01 10:23:40;;;;;;;2.30;1.40;;;;;;;28.63;28.97;101774.66;4996835;28;20589;-79
2021/10/01 10:26:05;;;;;;;2.97;1.60;;;;;;;29.80;27.28;101767.00;4988337;28;20227;-79
2021/10/01 10:28:33;;;;;;;4.78;1.52;;;;;;;29.85;27.13;101756.22;4976087;28;20231;-78
2021/10/01 10:30:59;;;;;;;3.78;1.60;;;;;;;28.06;29.03;101773.41;4986582;28;20216;-78
2021/10/01 10:33:40;;;;;;;2.60;1.45;;;;;;;28.57;28.59;101761.72;4959704;28;20266;-79
2021/10/01 10:36:24;;;;;;;3.95;1.85;;;;;;;29.33;27.80;101749.72;4984879;28;20664;-78
2021/10/01 10:38:49;;;;;;;3.55;1.60;;;;;;;30.84;26.85;101750.63;4978173;28;20279;-78
2021/10/01 10:41:26;;;;;;;3.45;1.70;;;;;;;31.40;25.61;101749.44;4995776;28;20208;-79
2021/10/01 10:43:52;;;;;;;4.78;1.50;;;;;;;28.68;28.66;101753.38;4995276;28;20203;-78
2021/10/01 10:46:36;;;;;;;4.60;1.88;;;;;;;28.84;28.53;101755.34;4988834;28;20201;-78
2021/10/01 10:49:22;;;;;;;3.72;1.30;;;;;;;30.01;26.96;101744.00;5005862;28;20196;-78
2021/10/01 10:52:05;;;;;;;3.58;1.70;;;;;;;28.07;28.41;101748.75;4995113;28;20743;-77
2021/10/01 10:54:57;;;;;;;3.17;1.52;;;;;;;27.78;29.45;101760.38;4995094;28;20275;-77
2021/10/01 10:57:23;;;;;;;1.90;1.40;;;;;;;29.74;26.87;101742.63;4994848;28;20223;-77
2021/10/01 10:59:50;;;;;;;2.90;1.55;;;;;;;29.93;26.52;101728.50;4996233;28;20653;-78
2021/10/01 11:02:33;;;;;;;2.75;1.67;;;;;;;30.22;27.69;101727.19;4981424;28;20287;-78
2021/10/01 11:05:19;;;;;;;2.20;1.50;;;;;;;29.86;27.45;101728.88;4987243;28;20188;-78
2021/10/01 11:08:00;;;;;;;2.83;1.20;;;;;;;27.87;29.60;101731.06;4962911;29;20193;-79
2021/10/01 11:10:50;;;;;;;2.00;1.80;;;;;;;28.08;29.26;101726.75;4962972;29;20240;-78
2021/10/01 11:13:18;;;;;;;2.25;1.30;;;;;;;28.15;29.66;101737.03;4963079;29;20906;-78
2021/10/01 11:16:09;;;;;;;3.40;1.52;;;;;;;27.36;29.85;101735.56;4961299;29;20658;-79
2021/10/01 11:18:44;;;;;;;2.33;1.40;;;;;;;27.67;30.08;101727.44;4946726;29;20189;-78
2021/10/01 11:21:24;;;;;;;3.10;1.50;;;;;;;27.82;30.31;101730.38;4970483;28;20246;-77
2021/10/01 11:24:09;;;;;;;3.88;1.55;;;;;;;26.40;31.45;101727.41;4979483;28;20586;-76
2021/10/01 11:26:44;;;;;;;3.70;1.55;;;;;;;24.94;34.79;101733.31;4997928;28;20188;-78
2021/10/01 11:29:28;;;;;;;3.60;1.77;;;;;;;25.50;33.88;101723.06;4960514;28;20284;-77
2021/10/01 11:32:02;;;;;;;4.57;1.55;;;;;;;25.69;33.00;101720.81;4958517;28;20213;-78
2021/10/01 11:34:42;;;;;;;4.68;1.33;;;;;;;24.32;34.88;101729.56;4958842;28;20182;-78
2021/10/01 11:37:22;;;;;;;2.85;1.40;;;;;;;24.24;35.40;101722.75;4977207;28;20223;-78
2021/10/01 11:39:47;;;;;;;1.88;1.38;;;;;;;24.41;35.85;101708.38;4994115;28;20196;-77
2021/10/01 11:42:25;;;;;;;3.13;1.33;;;;;;;24.90;34.19;101703.69;4979613;28;20192;-77
2021/10/01 11:44:51;;;;;;;2.97;1.65;;;;;;;24.22;35.26;101712.31;4978073;28;20287;-78
2021/10/01 11:47:16;;;;;;;3.88;1.58;;;;;;;25.11;33.89;101700.53;4979102;28;20670;-77
2021/10/01 11:49:50;;;;;;;2.50;1.52;;;;;;;30.17;27.42;101685.09;4996925;28;20198;-78
2021/10/01 11:52:17;;;;;;;2.10;1.60;;;;;;;30.85;25.06;101675.56;5003749;28;20230;-79
2021/10/01 11:54:56;;;;;;;3.72;1.60;;;;;;;29.29;27.18;101678.66;4998028;28;20212;-78
2021/10/01 11:57:22;;;;;;;3.40;1.67;;;;;;;29.43;27.74;101682.38;4997395;28;20187;-78
2021/10/01 11:59:53;;;;;;;5.35;1.80;;;;;;;30.18;26.71;101670.09;5007623;28;20198;-77
2021/10/01 12:02:32;;;;;;;2.40;1.58;;;;;;;29.36;28.92;101670.38;5016144;28;20207;-79
2021/10/01 12:05:19;;;;;;;2.33;1.23;;;;;;;28.01;29.06;101676.09;5011099;28;20936;-77
2021/10/01 12:07:53;;;;;;;2.90;1.50;;;;;;;30.68;26.60;101665.84;4983108;28;20232;-78
2021/10/01 12:10:20;;;;;;;3.05;1.30;;;;;;;29.18;27.07;101667.69;4980317;28;20199;-78
2021/10/01 12:13:25;;;;;;;2.42;1.48;;;;;;;27.63;30.03;101674.03;4983103;28;20216;-78
2021/10/01 12:16:04;;;;;;;4.35;1.20;;;;;;;26.30;31.28;101674.28;4981639;28;20610;-77
2021/10/01 12:18:40;;;;;;;2.83;1.40;;;;;;;26.09;33.46;101674.09;4995166;28;20176;-77
2021/10/01 12:21:09;;;;;;;3.00;1.10;;;;;;;25.41;33.64;101673.47;4976878;28;20608;-75
2021/10/01 12:23:43;;;;;;;2.23;1.10;;;;;;;24.25;34.26;101678.19;4977184;28;20212;-78
2021/10/01 12:26:31;;;;;;;3.53;1.40;;;;;;;25.81;32.76;101671.44;4977785;28;20190;-77
2021/10/01 12:29:05;;;;;;;3.60;1.33;;;;;;;24.23;35.59;101672.16;4979339;28;20905;-78
2021/10/01 12:31:51;;;;;;;2.07;1.00;;;;;;;24.29;35.12;101668.50;4998380;28;20203;-78
2021/10/01 12:34:22;;;;;;;3.23;1.33;;;;;;;23.59;36.27;101658.72;4998257;28;20220;-77
2021/10/01 12:37:09;;;;;;;2.30;1.20;;;;;;;23.53;36.89;101655.38;4997821;28;20192;-78
2021/10/01 12:39:36;;;;;;;2.87;1.20;;;;;;;22.68;38.80;101671.75;4998985;28;20701;-76
2021/10/01 12:42:05;;;;;;;2.87;1.03;;;;;;;22.33;39.90;101658.34;4998710;28;20182;-77
2021/10/01 12:44:38;;;;;;;2.80;0.87;;;;;;;21.58;41.30;101656.78;4996769;28;20192;-78
2021/10/01 12:47:16;;;;;;;3.60;1.30;;;;;;;21.72;41.45;101653.19;4980410;28;20204;-78
2021/10/01 12:49:43;;;;;;;2.87;0.90;;;;;;;21.59;41.32;101667.22;4997003;28;20222;-77
2021/10/01 12:52:37;;;;;;;6.47;1.30;;;;;;;20.97;42.45;101672.28;4995945;28;20223;-77
2021/10/01 12:55:08;;;;;;;2.67;1.10;;;;;;;20.30;42.46;101668.44;4975591;28;20196;-77
2021/10/01 12:57:45;;;;;;;2.33;0.80;;;;;;;20.27;43.43;101681.47;4993322;28;20664;-76
2021/10/01 13:00:17;;;;;;;2.63;1.10;;;;;;;20.13;43.13;101677.25;4975664;28;20188;-77
2021/10/01 13:02:47;;;;;;;1.20;1.00;;;;;;;20.51;43.72;101665.72;4977217;28;20298;-76
2021/10/01 13:05:28;;;;;;;3.53;1.07;;;;;;;20.42;42.51;101676.19;5000431;28;20188;-77
2021/10/01 13:07:57;;;;;;;3.43;1.10;;;;;;;20.18;42.70;101660.72;4992417;28;20187;-76
2021/10/01 13:10:30;;;;;;;3.57;1.20;;;;;;;19.89;43.31;101665.22;4991435;28;20207;-76
2021/10/01 13:13:11;;;;;;;2.43;1.03;;;;;;;19.63;44.37;101656.66;4993479;28;20207;-77
2021/10/01 13:15:51;;;;;;;2.47;1.00;;;;;;;19.49;44.21;101658.44;4975972;28;20188;-77